sensor_id;sensor_type;location;lat;lon;timestamp;P1;durP1;ratioP1;P2;durP2;ratioP2
18532;SDS011;9396;51.510;11.934;2023-07-02T00:01:35;7.03;;;2.30;;
18532;SDS011;9396;51.510;11.934;2023-07-02T00:04:02;2.87;;;2.30;;
18532;SDS011;9396;51.510;11.934;2023-07-02T00:06:28;2.63;;;2.37;;
18532;SDS011;9396;51.510;11.934;2023-07-02T00:08:57;3.83;;;2.23;;
18532;SDS011;9396;51.510;11.934;2023-07-02T00:11:24;6.00;;;2.53;;
18532;SDS011;9396;51.510;11.934;2023-07-02T00:13:51;2.80;;;2.40;;
18532;SDS011;9396;51.510;11.934;2023-07-02T00:16:18;2.30;;;2.10;;
18532;SDS011;9396;51.510;11.934;2023-07-02T00:18:46;4.27;;;2.03;;
18532;SDS011;9396;51.510;11.934;2023-07-02T00:21:26;5.97;;;2.40;;
18532;SDS011;9396;51.510;11.934;2023-07-02T00:23:54;5.50;;;2.53;;
18532;SDS011;9396;51.510;11.934;2023-07-02T00:26:22;3.83;;;2.47;;
18532;SDS011;9396;51.510;11.934;2023-07-02T00:28:49;5.87;;;2.57;;
18532;SDS011;9396;51.510;11.934;2023-07-02T00:31:16;4.67;;;2.70;;
18532;SDS011;9396;51.510;11.934;2023-07-02T00:33:42;4.37;;;2.63;;
18532;SDS011;9396;51.510;11.934;2023-07-02T00:36:10;4.27;;;2.23;;
18532;SDS011;9396;51.510;11.934;2023-07-02T00:38:40;4.43;;;2.63;;
18532;SDS011;9396;51.510;11.934;2023-07-02T00:41:07;3.47;;;2.70;;
18532;SDS011;9396;51.510;11.934;2023-07-02T00:43:34;3.37;;;2.60;;
18532;SDS011;9396;51.510;11.934;2023-07-02T00:46:01;6.10;;;3.23;;
18532;SDS011;9396;51.510;11.934;2023-07-02T00:48:29;5.90;;;2.60;;
18532;SDS011;9396;51.510;11.934;2023-07-02T00:50:56;3.33;;;2.70;;
18532;SDS011;9396;51.510;11.934;2023-07-02T00:53:24;3.37;;;2.70;;
18532;SDS011;9396;51.510;11.934;2023-07-02T00:55:51;3.67;;;3.10;;
18532;SDS011;9396;51.510;11.934;2023-07-02T00:58:17;5.97;;;2.87;;
18532;SDS011;9396;51.510;11.934;2023-07-02T01:00:46;4.50;;;2.40;;
18532;SDS011;9396;51.510;11.934;2023-07-02T01:03:13;6.20;;;2.80;;
18532;SDS011;9396;51.510;11.934;2023-07-02T01:05:39;8.40;;;2.70;;
18532;SDS011;9396;51.510;11.934;2023-07-02T01:08:06;5.83;;;2.47;;
18532;SDS011;9396;51.510;11.934;2023-07-02T01:10:37;6.97;;;3.20;;
18532;SDS011;9396;51.510;11.934;2023-07-02T01:13:04;7.53;;;2.83;;
18532;SDS011;9396;51.510;11.934;2023-07-02T01:15:35;6.80;;;2.70;;
18532;SDS011;9396;51.510;11.934;2023-07-02T01:18:03;4.37;;;2.73;;
18532;SDS011;9396;51.510;11.934;2023-07-02T01:20:31;5.83;;;3.00;;
18532;SDS011;9396;51.510;11.934;2023-07-02T01:23:00;7.70;;;2.70;;
18532;SDS011;9396;51.510;11.934;2023-07-02T01:25:28;3.43;;;2.50;;
18532;SDS011;9396;51.510;11.934;2023-07-02T01:27:55;3.17;;;2.60;;
18532;SDS011;9396;51.510;11.934;2023-07-02T01:30:23;5.07;;;2.80;;
18532;SDS011;9396;51.510;11.934;2023-07-02T01:32:50;8.23;;;2.60;;
18532;SDS011;9396;51.510;11.934;2023-07-02T01:35:17;4.87;;;2.90;;
18532;SDS011;9396;51.510;11.934;2023-07-02T01:37:45;3.60;;;2.40;;
18532;SDS011;9396;51.510;11.934;2023-07-02T01:40:11;4.10;;;2.53;;
18532;SDS011;9396;51.510;11.934;2023-07-02T01:42:38;8.33;;;2.70;;
18532;SDS011;9396;51.510;11.934;2023-07-02T01:45:05;5.80;;;2.70;;
18532;SDS011;9396;51.510;11.934;2023-07-02T01:47:32;5.87;;;3.03;;
18532;SDS011;9396;51.510;11.934;2023-07-02T01:49:59;5.23;;;2.40;;
18532;SDS011;9396;51.510;11.934;2023-07-02T01:52:25;6.77;;;2.47;;
18532;SDS011;9396;51.510;11.934;2023-07-02T01:54:54;4.53;;;2.10;;
18532;SDS011;9396;51.510;11.934;2023-07-02T01:57:20;5.73;;;2.03;;
18532;SDS011;9396;51.510;11.934;2023-07-02T01:59:47;3.83;;;2.13;;
18532;SDS011;9396;51.510;11.934;2023-07-02T02:02:14;2.50;;;2.30;;
18532;SDS011;9396;51.510;11.934;2023-07-02T02:04:40;4.70;;;2.03;;
18532;SDS011;9396;51.510;11.934;2023-07-02T02:07:07;5.63;;;2.00;;
18532;SDS011;9396;51.510;11.934;2023-07-02T02:09:34;2.97;;;2.30;;
18532;SDS011;9396;51.510;11.934;2023-07-02T02:12:02;2.97;;;2.00;;
18532;SDS011;9396;51.510;11.934;2023-07-02T02:14:29;2.67;;;1.83;;
18532;SDS011;9396;51.510;11.934;2023-07-02T02:16:56;7.03;;;2.07;;
18532;SDS011;9396;51.510;11.934;2023-07-02T02:19:22;3.97;;;1.90;;
18532;SDS011;9396;51.510;11.934;2023-07-02T02:21:49;4.30;;;2.03;;
18532;SDS011;9396;51.510;11.934;2023-07-02T02:24:15;7.23;;;1.93;;
18532;SDS011;9396;51.510;11.934;2023-07-02T02:26:42;4.10;;;2.20;;
18532;SDS011;9396;51.510;11.934;2023-07-02T02:29:10;4.03;;;2.00;;
18532;SDS011;9396;51.510;11.934;2023-07-02T02:31:37;2.97;;;2.20;;
18532;SDS011;9396;51.510;11.934;2023-07-02T02:34:03;4.03;;;2.23;;
18532;SDS011;9396;51.510;11.934;2023-07-02T02:36:30;2.30;;;2.10;;
18532;SDS011;9396;51.510;11.934;2023-07-02T02:38:57;2.27;;;1.83;;
18532;SDS011;9396;51.510;11.934;2023-07-02T02:41:24;3.47;;;2.00;;
18532;SDS011;9396;51.510;11.934;2023-07-02T02:43:50;3.80;;;2.17;;
18532;SDS011;9396;51.510;11.934;2023-07-02T02:46:20;3.10;;;2.23;;
18532;SDS011;9396;51.510;11.934;2023-07-02T02:48:47;5.87;;;2.60;;
18532;SDS011;9396;51.510;11.934;2023-07-02T02:51:14;3.53;;;2.47;;
18532;SDS011;9396;51.510;11.934;2023-07-02T02:53:41;7.17;;;2.60;;
18532;SDS011;9396;51.510;11.934;2023-07-02T02:56:07;5.10;;;2.40;;
18532;SDS011;9396;51.510;11.934;2023-07-02T02:58:34;4.50;;;2.87;;
18532;SDS011;9396;51.510;11.934;2023-07-02T03:01:00;4.37;;;2.40;;
18532;SDS011;9396;51.510;11.934;2023-07-02T03:03:30;7.57;;;2.73;;
18532;SDS011;9396;51.510;11.934;2023-07-02T03:05:59;5.93;;;2.87;;
18532;SDS011;9396;51.510;11.934;2023-07-02T03:08:26;5.20;;;2.47;;
18532;SDS011;9396;51.510;11.934;2023-07-02T03:10:53;6.97;;;2.23;;
18532;SDS011;9396;51.510;11.934;2023-07-02T03:13:19;9.30;;;2.80;;
18532;SDS011;9396;51.510;11.934;2023-07-02T03:15:46;6.30;;;2.80;;
18532;SDS011;9396;51.510;11.934;2023-07-02T03:18:12;4.60;;;2.77;;
18532;SDS011;9396;51.510;11.934;2023-07-02T03:20:40;3.77;;;2.73;;
18532;SDS011;9396;51.510;11.934;2023-07-02T03:23:07;8.43;;;2.53;;
18532;SDS011;9396;51.510;11.934;2023-07-02T03:25:34;11.43;;;2.77;;
18532;SDS011;9396;51.510;11.934;2023-07-02T03:28:00;5.30;;;2.87;;
18532;SDS011;9396;51.510;11.934;2023-07-02T03:30:27;3.23;;;2.60;;
18532;SDS011;9396;51.510;11.934;2023-07-02T03:32:53;5.73;;;2.87;;
18532;SDS011;9396;51.510;11.934;2023-07-02T03:35:21;5.60;;;3.20;;
18532;SDS011;9396;51.510;11.934;2023-07-02T03:37:49;6.70;;;2.77;;
18532;SDS011;9396;51.510;11.934;2023-07-02T03:40:15;5.83;;;2.60;;
18532;SDS011;9396;51.510;11.934;2023-07-02T03:42:43;5.67;;;2.90;;
18532;SDS011;9396;51.510;11.934;2023-07-02T03:45:09;3.43;;;2.77;;
18532;SDS011;9396;51.510;11.934;2023-07-02T03:47:36;3.90;;;2.73;;
18532;SDS011;9396;51.510;11.934;2023-07-02T03:50:03;5.03;;;2.50;;
18532;SDS011;9396;51.510;11.934;2023-07-02T03:52:30;2.90;;;2.60;;
18532;SDS011;9396;51.510;11.934;2023-07-02T03:54:58;5.33;;;2.40;;
18532;SDS011;9396;51.510;11.934;2023-07-02T03:57:25;3.90;;;2.70;;
18532;SDS011;9396;51.510;11.934;2023-07-02T03:59:51;3.23;;;2.40;;
18532;SDS011;9396;51.510;11.934;2023-07-02T04:02:19;5.00;;;2.50;;
18532;SDS011;9396;51.510;11.934;2023-07-02T04:04:45;3.43;;;2.33;;
18532;SDS011;9396;51.510;11.934;2023-07-02T04:07:12;5.23;;;3.33;;
18532;SDS011;9396;51.510;11.934;2023-07-02T04:09:39;3.93;;;2.73;;
18532;SDS011;9396;51.510;11.934;2023-07-02T04:12:07;6.87;;;2.83;;
18532;SDS011;9396;51.510;11.934;2023-07-02T04:14:35;3.33;;;2.90;;
18532;SDS011;9396;51.510;11.934;2023-07-02T04:17:01;7.20;;;3.30;;
18532;SDS011;9396;51.510;11.934;2023-07-02T04:19:29;5.90;;;3.10;;
18532;SDS011;9396;51.510;11.934;2023-07-02T04:21:56;5.43;;;2.67;;
18532;SDS011;9396;51.510;11.934;2023-07-02T04:24:22;5.33;;;2.97;;
18532;SDS011;9396;51.510;11.934;2023-07-02T04:26:50;4.73;;;3.23;;
18532;SDS011;9396;51.510;11.934;2023-07-02T04:29:20;3.10;;;2.77;;
18532;SDS011;9396;51.510;11.934;2023-07-02T04:31:46;5.33;;;3.10;;
18532;SDS011;9396;51.510;11.934;2023-07-02T04:34:13;7.40;;;3.20;;
18532;SDS011;9396;51.510;11.934;2023-07-02T04:36:40;5.50;;;2.97;;
18532;SDS011;9396;51.510;11.934;2023-07-02T04:39:08;5.17;;;3.07;;
18532;SDS011;9396;51.510;11.934;2023-07-02T04:41:35;5.17;;;3.43;;
18532;SDS011;9396;51.510;11.934;2023-07-02T04:44:02;4.67;;;3.20;;
18532;SDS011;9396;51.510;11.934;2023-07-02T04:46:30;4.80;;;3.60;;
18532;SDS011;9396;51.510;11.934;2023-07-02T04:48:57;6.63;;;3.73;;
18532;SDS011;9396;51.510;11.934;2023-07-02T04:51:24;5.53;;;3.43;;
18532;SDS011;9396;51.510;11.934;2023-07-02T04:53:50;5.30;;;3.83;;
18532;SDS011;9396;51.510;11.934;2023-07-02T04:56:17;4.80;;;3.30;;
18532;SDS011;9396;51.510;11.934;2023-07-02T04:58:43;4.23;;;3.57;;
18532;SDS011;9396;51.510;11.934;2023-07-02T05:01:10;4.77;;;3.83;;
18532;SDS011;9396;51.510;11.934;2023-07-02T05:03:38;5.57;;;3.77;;
18532;SDS011;9396;51.510;11.934;2023-07-02T05:06:05;4.60;;;3.40;;
18532;SDS011;9396;51.510;11.934;2023-07-02T05:08:31;4.53;;;3.30;;
18532;SDS011;9396;51.510;11.934;2023-07-02T05:10:58;4.27;;;3.47;;
18532;SDS011;9396;51.510;11.934;2023-07-02T05:13:25;4.33;;;3.80;;
18532;SDS011;9396;51.510;11.934;2023-07-02T05:15:51;3.90;;;3.50;;
18532;SDS011;9396;51.510;11.934;2023-07-02T05:18:18;6.90;;;3.97;;
18532;SDS011;9396;51.510;11.934;2023-07-02T05:20:46;5.67;;;3.83;;
18532;SDS011;9396;51.510;11.934;2023-07-02T05:23:12;4.00;;;3.60;;
18532;SDS011;9396;51.510;11.934;2023-07-02T05:25:39;4.30;;;3.90;;
18532;SDS011;9396;51.510;11.934;2023-07-02T05:28:06;4.93;;;4.03;;
18532;SDS011;9396;51.510;11.934;2023-07-02T05:30:32;5.17;;;4.20;;
18532;SDS011;9396;51.510;11.934;2023-07-02T05:32:59;7.77;;;4.20;;
18532;SDS011;9396;51.510;11.934;2023-07-02T05:35:26;6.27;;;4.00;;
18532;SDS011;9396;51.510;11.934;2023-07-02T05:37:54;8.03;;;4.27;;
18532;SDS011;9396;51.510;11.934;2023-07-02T05:40:20;5.17;;;4.70;;
18532;SDS011;9396;51.510;11.934;2023-07-02T05:42:47;7.73;;;5.17;;
18532;SDS011;9396;51.510;11.934;2023-07-02T05:45:13;4.87;;;4.30;;
18532;SDS011;9396;51.510;11.934;2023-07-02T05:47:40;4.60;;;4.20;;
18532;SDS011;9396;51.510;11.934;2023-07-02T05:50:07;4.77;;;4.27;;
18532;SDS011;9396;51.510;11.934;2023-07-02T05:52:34;4.93;;;4.47;;
18532;SDS011;9396;51.510;11.934;2023-07-02T05:55:03;5.27;;;4.37;;
18532;SDS011;9396;51.510;11.934;2023-07-02T05:57:30;6.67;;;4.53;;
18532;SDS011;9396;51.510;11.934;2023-07-02T05:59:56;5.40;;;4.40;;
18532;SDS011;9396;51.510;11.934;2023-07-02T06:02:23;5.57;;;3.93;;
18532;SDS011;9396;51.510;11.934;2023-07-02T06:04:50;4.50;;;3.90;;
18532;SDS011;9396;51.510;11.934;2023-07-02T06:07:16;8.50;;;3.73;;
18532;SDS011;9396;51.510;11.934;2023-07-02T06:09:43;3.30;;;3.00;;
18532;SDS011;9396;51.510;11.934;2023-07-02T06:12:11;4.73;;;3.20;;
18532;SDS011;9396;51.510;11.934;2023-07-02T06:14:37;3.70;;;2.97;;
18532;SDS011;9396;51.510;11.934;2023-07-02T06:17:04;3.53;;;3.07;;
18532;SDS011;9396;51.510;11.934;2023-07-02T06:19:32;3.90;;;2.50;;
18532;SDS011;9396;51.510;11.934;2023-07-02T06:21:59;5.27;;;2.60;;
18532;SDS011;9396;51.510;11.934;2023-07-02T06:24:26;5.53;;;2.60;;
18532;SDS011;9396;51.510;11.934;2023-07-02T06:26:52;3.80;;;2.37;;
18532;SDS011;9396;51.510;11.934;2023-07-02T06:29:21;5.00;;;2.70;;
18532;SDS011;9396;51.510;11.934;2023-07-02T06:31:48;3.60;;;2.77;;
18532;SDS011;9396;51.510;11.934;2023-07-02T06:34:15;3.13;;;2.23;;
18532;SDS011;9396;51.510;11.934;2023-07-02T06:36:42;3.10;;;2.20;;
18532;SDS011;9396;51.510;11.934;2023-07-02T06:39:09;3.20;;;2.50;;
18532;SDS011;9396;51.510;11.934;2023-07-02T06:41:35;4.53;;;2.33;;
18532;SDS011;9396;51.510;11.934;2023-07-02T06:44:02;3.90;;;2.10;;
18532;SDS011;9396;51.510;11.934;2023-07-02T06:46:31;4.43;;;2.20;;
18532;SDS011;9396;51.510;11.934;2023-07-02T06:48:57;4.93;;;1.70;;
18532;SDS011;9396;51.510;11.934;2023-07-02T06:51:24;2.17;;;1.73;;
18532;SDS011;9396;51.510;11.934;2023-07-02T06:53:52;2.03;;;1.77;;
18532;SDS011;9396;51.510;11.934;2023-07-02T06:56:18;2.10;;;1.80;;
18532;SDS011;9396;51.510;11.934;2023-07-02T06:58:45;3.20;;;1.70;;
18532;SDS011;9396;51.510;11.934;2023-07-02T07:01:11;3.17;;;1.73;;
18532;SDS011;9396;51.510;11.934;2023-07-02T07:03:39;3.40;;;1.80;;
18532;SDS011;9396;51.510;11.934;2023-07-02T07:06:06;4.00;;;2.00;;
18532;SDS011;9396;51.510;11.934;2023-07-02T07:08:33;7.17;;;2.17;;
18532;SDS011;9396;51.510;11.934;2023-07-02T07:11:02;8.13;;;2.07;;
18532;SDS011;9396;51.510;11.934;2023-07-02T07:13:29;2.30;;;1.77;;
18532;SDS011;9396;51.510;11.934;2023-07-02T07:15:56;3.47;;;1.87;;
18532;SDS011;9396;51.510;11.934;2023-07-02T07:18:22;3.27;;;1.67;;
18532;SDS011;9396;51.510;11.934;2023-07-02T07:20:50;2.70;;;2.00;;
18532;SDS011;9396;51.510;11.934;2023-07-02T07:23:18;4.43;;;2.03;;
18532;SDS011;9396;51.510;11.934;2023-07-02T07:25:45;2.80;;;1.80;;
18532;SDS011;9396;51.510;11.934;2023-07-02T07:28:11;2.53;;;1.77;;
18532;SDS011;9396;51.510;11.934;2023-07-02T07:30:40;2.13;;;1.60;;
18532;SDS011;9396;51.510;11.934;2023-07-02T07:33:07;3.77;;;1.47;;
18532;SDS011;9396;51.510;11.934;2023-07-02T07:35:34;2.10;;;1.63;;
18532;SDS011;9396;51.510;11.934;2023-07-02T07:38:02;5.83;;;1.90;;
18532;SDS011;9396;51.510;11.934;2023-07-02T07:40:28;1.80;;;1.50;;
18532;SDS011;9396;51.510;11.934;2023-07-02T07:42:55;4.87;;;1.80;;
18532;SDS011;9396;51.510;11.934;2023-07-02T07:45:22;3.73;;;1.50;;
18532;SDS011;9396;51.510;11.934;2023-07-02T07:47:48;3.47;;;1.80;;
18532;SDS011;9396;51.510;11.934;2023-07-02T07:50:15;5.10;;;1.60;;
18532;SDS011;9396;51.510;11.934;2023-07-02T07:52:42;1.93;;;1.50;;
18532;SDS011;9396;51.510;11.934;2023-07-02T07:55:10;3.00;;;1.37;;
18532;SDS011;9396;51.510;11.934;2023-07-02T07:57:37;3.17;;;1.40;;
18532;SDS011;9396;51.510;11.934;2023-07-02T08:00:04;2.90;;;1.70;;
18532;SDS011;9396;51.510;11.934;2023-07-02T08:02:34;7.67;;;1.60;;
18532;SDS011;9396;51.510;11.934;2023-07-02T08:05:01;2.43;;;1.47;;
18532;SDS011;9396;51.510;11.934;2023-07-02T08:07:28;2.27;;;1.37;;
18532;SDS011;9396;51.510;11.934;2023-07-02T08:09:54;6.00;;;1.43;;
18532;SDS011;9396;51.510;11.934;2023-07-02T08:12:22;1.60;;;1.50;;
18532;SDS011;9396;51.510;11.934;2023-07-02T08:14:49;3.00;;;1.40;;
18532;SDS011;9396;51.510;11.934;2023-07-02T08:17:16;6.20;;;1.60;;
18532;SDS011;9396;51.510;11.934;2023-07-02T08:19:42;3.53;;;1.53;;
18532;SDS011;9396;51.510;11.934;2023-07-02T08:22:09;3.30;;;1.80;;
18532;SDS011;9396;51.510;11.934;2023-07-02T08:24:35;1.70;;;1.40;;
18532;SDS011;9396;51.510;11.934;2023-07-02T08:27:02;5.73;;;1.70;;
18532;SDS011;9396;51.510;11.934;2023-07-02T08:29:31;1.80;;;1.60;;
18532;SDS011;9396;51.510;11.934;2023-07-02T08:31:58;4.87;;;1.50;;
18532;SDS011;9396;51.510;11.934;2023-07-02T08:34:25;5.00;;;1.77;;
18532;SDS011;9396;51.510;11.934;2023-07-02T08:36:51;4.10;;;2.20;;
18532;SDS011;9396;51.510;11.934;2023-07-02T08:39:18;8.83;;;2.40;;
18532;SDS011;9396;51.510;11.934;2023-07-02T08:41:45;2.47;;;2.13;;
18532;SDS011;9396;51.510;11.934;2023-07-02T08:44:12;4.93;;;2.47;;
18532;SDS011;9396;51.510;11.934;2023-07-02T08:46:41;3.43;;;2.20;;
18532;SDS011;9396;51.510;11.934;2023-07-02T08:49:09;3.63;;;2.97;;
18532;SDS011;9396;51.510;11.934;2023-07-02T08:51:35;5.70;;;3.07;;
18532;SDS011;9396;51.510;11.934;2023-07-02T08:54:02;4.80;;;2.77;;
18532;SDS011;9396;51.510;11.934;2023-07-02T08:56:30;3.90;;;3.13;;
18532;SDS011;9396;51.510;11.934;2023-07-02T08:58:56;5.83;;;3.00;;
18532;SDS011;9396;51.510;11.934;2023-07-02T09:01:23;3.90;;;3.00;;
18532;SDS011;9396;51.510;11.934;2023-07-02T09:03:51;4.30;;;3.40;;
18532;SDS011;9396;51.510;11.934;2023-07-02T09:06:18;5.07;;;3.40;;
18532;SDS011;9396;51.510;11.934;2023-07-02T09:08:45;6.00;;;3.20;;
18532;SDS011;9396;51.510;11.934;2023-07-02T09:11:12;5.63;;;4.00;;
18532;SDS011;9396;51.510;11.934;2023-07-02T09:13:46;9.10;;;3.77;;
18532;SDS011;9396;51.510;11.934;2023-07-02T09:16:21;7.13;;;3.70;;
18532;SDS011;9396;51.510;11.934;2023-07-02T09:19:02;5.77;;;3.90;;
18532;SDS011;9396;51.510;11.934;2023-07-02T09:21:41;5.87;;;2.77;;
18532;SDS011;9396;51.510;11.934;2023-07-02T09:24:12;5.67;;;3.23;;
18532;SDS011;9396;51.510;11.934;2023-07-02T09:26:41;10.73;;;3.10;;
18532;SDS011;9396;51.510;11.934;2023-07-02T09:29:09;4.53;;;3.17;;
18532;SDS011;9396;51.510;11.934;2023-07-02T09:31:42;8.97;;;3.47;;
18532;SDS011;9396;51.510;11.934;2023-07-02T09:34:11;5.20;;;3.40;;
18532;SDS011;9396;51.510;11.934;2023-07-02T09:36:38;7.50;;;3.30;;
18532;SDS011;9396;51.510;11.934;2023-07-02T09:39:06;11.83;;;4.03;;
18532;SDS011;9396;51.510;11.934;2023-07-02T09:41:33;4.27;;;3.40;;
18532;SDS011;9396;51.510;11.934;2023-07-02T09:44:00;6.70;;;3.80;;
18532;SDS011;9396;51.510;11.934;2023-07-02T09:46:28;5.30;;;3.33;;
18532;SDS011;9396;51.510;11.934;2023-07-02T09:48:57;4.53;;;3.70;;
18532;SDS011;9396;51.510;11.934;2023-07-02T09:51:26;8.70;;;3.50;;
18532;SDS011;9396;51.510;11.934;2023-07-02T09:53:53;7.87;;;3.90;;
18532;SDS011;9396;51.510;11.934;2023-07-02T09:56:20;4.80;;;2.93;;
18532;SDS011;9396;51.510;11.934;2023-07-02T09:58:47;9.00;;;3.53;;
18532;SDS011;9396;51.510;11.934;2023-07-02T10:01:14;5.57;;;3.67;;
18532;SDS011;9396;51.510;11.934;2023-07-02T10:03:40;6.23;;;3.90;;
18532;SDS011;9396;51.510;11.934;2023-07-02T10:06:07;6.97;;;3.20;;
18532;SDS011;9396;51.510;11.934;2023-07-02T10:08:35;5.10;;;3.20;;
18532;SDS011;9396;51.510;11.934;2023-07-02T10:11:09;5.03;;;3.17;;
18532;SDS011;9396;51.510;11.934;2023-07-02T10:13:36;4.27;;;3.13;;
18532;SDS011;9396;51.510;11.934;2023-07-02T10:16:03;4.23;;;3.67;;
18532;SDS011;9396;51.510;11.934;2023-07-02T10:18:31;5.23;;;3.70;;
18532;SDS011;9396;51.510;11.934;2023-07-02T10:20:58;5.67;;;4.03;;
18532;SDS011;9396;51.510;11.934;2023-07-02T10:23:32;6.47;;;3.63;;
18532;SDS011;9396;51.510;11.934;2023-07-02T10:26:10;7.37;;;4.23;;
18532;SDS011;9396;51.510;11.934;2023-07-02T10:28:39;8.23;;;4.77;;
18532;SDS011;9396;51.510;11.934;2023-07-02T10:31:16;8.57;;;4.23;;
18532;SDS011;9396;51.510;11.934;2023-07-02T10:33:44;7.47;;;4.50;;
18532;SDS011;9396;51.510;11.934;2023-07-02T10:36:17;6.47;;;4.30;;
18532;SDS011;9396;51.510;11.934;2023-07-02T10:38:45;8.60;;;4.60;;
18532;SDS011;9396;51.510;11.934;2023-07-02T10:41:22;9.97;;;4.93;;
18532;SDS011;9396;51.510;11.934;2023-07-02T10:43:50;10.23;;;5.43;;
18532;SDS011;9396;51.510;11.934;2023-07-02T10:46:20;7.60;;;5.37;;
18532;SDS011;9396;51.510;11.934;2023-07-02T10:48:53;9.70;;;4.60;;
18532;SDS011;9396;51.510;11.934;2023-07-02T10:51:21;8.93;;;6.13;;
18532;SDS011;9396;51.510;11.934;2023-07-02T10:53:58;6.33;;;4.60;;
18532;SDS011;9396;51.510;11.934;2023-07-02T10:56:26;9.20;;;5.47;;
18532;SDS011;9396;51.510;11.934;2023-07-02T10:58:53;7.57;;;4.87;;
18532;SDS011;9396;51.510;11.934;2023-07-02T11:01:23;8.93;;;4.83;;
18532;SDS011;9396;51.510;11.934;2023-07-02T11:04:00;7.20;;;4.87;;
18532;SDS011;9396;51.510;11.934;2023-07-02T11:06:29;7.77;;;5.33;;
18532;SDS011;9396;51.510;11.934;2023-07-02T11:08:57;9.40;;;5.83;;
18532;SDS011;9396;51.510;11.934;2023-07-02T11:11:25;7.03;;;5.03;;
18532;SDS011;9396;51.510;11.934;2023-07-02T11:13:54;9.43;;;5.50;;
18532;SDS011;9396;51.510;11.934;2023-07-02T11:16:21;9.03;;;5.13;;
18532;SDS011;9396;51.510;11.934;2023-07-02T11:18:51;14.17;;;6.20;;
18532;SDS011;9396;51.510;11.934;2023-07-02T11:21:20;9.47;;;5.50;;
18532;SDS011;9396;51.510;11.934;2023-07-02T11:23:47;11.87;;;5.87;;
18532;SDS011;9396;51.510;11.934;2023-07-02T11:26:13;11.63;;;5.30;;
18532;SDS011;9396;51.510;11.934;2023-07-02T11:28:51;11.30;;;6.33;;
18532;SDS011;9396;51.510;11.934;2023-07-02T11:31:24;9.37;;;6.07;;
18532;SDS011;9396;51.510;11.934;2023-07-02T11:33:51;8.53;;;5.73;;
18532;SDS011;9396;51.510;11.934;2023-07-02T11:36:22;9.63;;;5.40;;
18532;SDS011;9396;51.510;11.934;2023-07-02T11:38:50;9.97;;;6.03;;
18532;SDS011;9396;51.510;11.934;2023-07-02T11:41:18;11.10;;;5.50;;
18532;SDS011;9396;51.510;11.934;2023-07-02T11:43:45;10.47;;;5.03;;
18532;SDS011;9396;51.510;11.934;2023-07-02T11:46:13;9.63;;;5.70;;
18532;SDS011;9396;51.510;11.934;2023-07-02T11:48:41;7.67;;;5.27;;
18532;SDS011;9396;51.510;11.934;2023-07-02T11:51:07;12.37;;;5.70;;
18532;SDS011;9396;51.510;11.934;2023-07-02T11:53:34;9.43;;;5.27;;
18532;SDS011;9396;51.510;11.934;2023-07-02T11:56:01;6.33;;;4.73;;
18532;SDS011;9396;51.510;11.934;2023-07-02T11:58:27;8.07;;;4.80;;
18532;SDS011;9396;51.510;11.934;2023-07-02T12:00:54;7.37;;;4.90;;
18532;SDS011;9396;51.510;11.934;2023-07-02T12:03:22;9.23;;;5.40;;
18532;SDS011;9396;51.510;11.934;2023-07-02T12:05:48;9.30;;;5.40;;
18532;SDS011;9396;51.510;11.934;2023-07-02T12:08:16;13.13;;;5.87;;
18532;SDS011;9396;51.510;11.934;2023-07-02T12:10:42;7.77;;;5.27;;
18532;SDS011;9396;51.510;11.934;2023-07-02T12:13:09;10.20;;;5.10;;
18532;SDS011;9396;51.510;11.934;2023-07-02T12:15:36;8.03;;;5.63;;
18532;SDS011;9396;51.510;11.934;2023-07-02T12:18:03;11.10;;;6.13;;
18532;SDS011;9396;51.510;11.934;2023-07-02T12:20:31;11.33;;;5.70;;
18532;SDS011;9396;51.510;11.934;2023-07-02T12:22:58;11.60;;;5.97;;
18532;SDS011;9396;51.510;11.934;2023-07-02T12:25:24;8.43;;;5.37;;
18532;SDS011;9396;51.510;11.934;2023-07-02T12:27:51;8.87;;;5.80;;
18532;SDS011;9396;51.510;11.934;2023-07-02T12:30:18;6.87;;;5.00;;
18532;SDS011;9396;51.510;11.934;2023-07-02T12:32:45;10.83;;;5.73;;
18532;SDS011;9396;51.510;11.934;2023-07-02T12:35:12;11.37;;;6.27;;
18532;SDS011;9396;51.510;11.934;2023-07-02T12:37:46;9.33;;;5.70;;
18532;SDS011;9396;51.510;11.934;2023-07-02T12:40:13;8.50;;;5.57;;
18532;SDS011;9396;51.510;11.934;2023-07-02T12:42:41;9.37;;;6.13;;
18532;SDS011;9396;51.510;11.934;2023-07-02T12:45:09;11.37;;;6.53;;
18532;SDS011;9396;51.510;11.934;2023-07-02T12:47:36;11.87;;;6.80;;
18532;SDS011;9396;51.510;11.934;2023-07-02T12:50:03;10.57;;;6.60;;
18532;SDS011;9396;51.510;11.934;2023-07-02T12:52:31;11.43;;;5.60;;
18532;SDS011;9396;51.510;11.934;2023-07-02T12:54:59;7.33;;;4.80;;
18532;SDS011;9396;51.510;11.934;2023-07-02T12:57:26;7.43;;;5.30;;
18532;SDS011;9396;51.510;11.934;2023-07-02T12:59:52;13.37;;;6.77;;
18532;SDS011;9396;51.510;11.934;2023-07-02T13:02:19;12.13;;;6.70;;
18532;SDS011;9396;51.510;11.934;2023-07-02T13:04:46;8.30;;;5.30;;
18532;SDS011;9396;51.510;11.934;2023-07-02T13:07:13;10.17;;;5.80;;
18532;SDS011;9396;51.510;11.934;2023-07-02T13:09:39;10.03;;;6.63;;
18532;SDS011;9396;51.510;11.934;2023-07-02T13:12:08;17.67;;;7.43;;
18532;SDS011;9396;51.510;11.934;2023-07-02T13:14:36;12.90;;;6.10;;
18532;SDS011;9396;51.510;11.934;2023-07-02T13:17:03;14.63;;;8.80;;
18532;SDS011;9396;51.510;11.934;2023-07-02T13:19:30;15.47;;;8.23;;
18532;SDS011;9396;51.510;11.934;2023-07-02T13:21:57;12.40;;;7.30;;
18532;SDS011;9396;51.510;11.934;2023-07-02T13:24:24;12.33;;;7.20;;
18532;SDS011;9396;51.510;11.934;2023-07-02T13:26:50;12.97;;;6.50;;
18532;SDS011;9396;51.510;11.934;2023-07-02T13:29:18;10.53;;;7.10;;
18532;SDS011;9396;51.510;11.934;2023-07-02T13:31:45;10.33;;;6.50;;
18532;SDS011;9396;51.510;11.934;2023-07-02T13:34:12;10.87;;;6.13;;
18532;SDS011;9396;51.510;11.934;2023-07-02T13:36:38;11.73;;;7.10;;
18532;SDS011;9396;51.510;11.934;2023-07-02T13:39:05;9.27;;;6.60;;
18532;SDS011;9396;51.510;11.934;2023-07-02T13:41:32;13.10;;;7.70;;
18532;SDS011;9396;51.510;11.934;2023-07-02T13:43:58;9.80;;;5.87;;
18532;SDS011;9396;51.510;11.934;2023-07-02T13:46:26;12.27;;;6.67;;
18532;SDS011;9396;51.510;11.934;2023-07-02T13:48:53;13.33;;;7.23;;
18532;SDS011;9396;51.510;11.934;2023-07-02T13:51:20;14.87;;;7.23;;
18532;SDS011;9396;51.510;11.934;2023-07-02T13:53:46;13.43;;;7.53;;
18532;SDS011;9396;51.510;11.934;2023-07-02T13:56:13;14.47;;;6.90;;
18532;SDS011;9396;51.510;11.934;2023-07-02T13:58:57;11.00;;;6.83;;
18532;SDS011;9396;51.510;11.934;2023-07-02T14:01:26;11.57;;;6.50;;
18532;SDS011;9396;51.510;11.934;2023-07-02T14:03:52;11.83;;;7.13;;
18532;SDS011;9396;51.510;11.934;2023-07-02T14:06:19;10.47;;;7.00;;
18532;SDS011;9396;51.510;11.934;2023-07-02T14:08:46;10.03;;;6.77;;
18532;SDS011;9396;51.510;11.934;2023-07-02T14:11:13;9.73;;;6.77;;
18532;SDS011;9396;51.510;11.934;2023-07-02T14:13:39;10.97;;;7.40;;
18532;SDS011;9396;51.510;11.934;2023-07-02T14:16:07;13.33;;;7.17;;
18532;SDS011;9396;51.510;11.934;2023-07-02T14:18:34;13.77;;;7.67;;
18532;SDS011;9396;51.510;11.934;2023-07-02T14:21:01;12.60;;;7.67;;
18532;SDS011;9396;51.510;11.934;2023-07-02T14:23:28;11.90;;;7.10;;
18532;SDS011;9396;51.510;11.934;2023-07-02T14:25:55;10.60;;;6.27;;
18532;SDS011;9396;51.510;11.934;2023-07-02T14:28:21;10.13;;;6.57;;
18532;SDS011;9396;51.510;11.934;2023-07-02T14:30:55;14.17;;;6.70;;
18532;SDS011;9396;51.510;11.934;2023-07-02T14:33:23;11.17;;;7.10;;
18532;SDS011;9396;51.510;11.934;2023-07-02T14:35:50;12.30;;;7.60;;
18532;SDS011;9396;51.510;11.934;2023-07-02T14:38:17;11.27;;;7.27;;
18532;SDS011;9396;51.510;11.934;2023-07-02T14:40:44;7.97;;;6.03;;
18532;SDS011;9396;51.510;11.934;2023-07-02T14:43:10;11.20;;;6.77;;
18532;SDS011;9396;51.510;11.934;2023-07-02T14:45:41;10.53;;;6.93;;
18532;SDS011;9396;51.510;11.934;2023-07-02T14:48:09;10.33;;;6.97;;